sensor_id;sensor_type;location;lat;lon;timestamp;temperature;humidity
18297;DHT22;18066;52.106;5.534;2023-09-08T00:02:09;18.30;99.90
18297;DHT22;18066;52.106;5.534;2023-09-08T00:04:36;18.30;99.90
18297;DHT22;18066;52.106;5.534;2023-09-08T00:07:04;18.30;99.90
18297;DHT22;18066;52.106;5.534;2023-09-08T00:09:31;18.30;99.90
18297;DHT22;18066;52.106;5.534;2023-09-08T00:11:58;18.20;99.90
18297;DHT22;18066;52.106;5.534;2023-09-08T00:14:25;18.30;99.90
18297;DHT22;18066;52.106;5.534;2023-09-08T00:16:52;18.20;99.90
18297;DHT22;18066;52.106;5.534;2023-09-08T00:19:20;18.20;99.90
18297;DHT22;18066;52.106;5.534;2023-09-08T00:21:47;18.20;99.90
18297;DHT22;18066;52.106;5.534;2023-09-08T00:24:16;18.10;99.90
18297;DHT22;18066;52.106;5.534;2023-09-08T00:26:43;18.10;99.90
18297;DHT22;18066;52.106;5.534;2023-09-08T00:29:10;18.10;99.90
18297;DHT22;18066;52.106;5.534;2023-09-08T00:31:36;18.10;99.90
18297;DHT22;18066;52.106;5.534;2023-09-08T00:34:03;18.00;99.90
18297;DHT22;18066;52.106;5.534;2023-09-08T00:36:30;18.00;99.90
18297;DHT22;18066;52.106;5.534;2023-09-08T00:38:57;18.00;99.90
18297;DHT22;18066;52.106;5.534;2023-09-08T00:41:25;17.90;99.90
18297;DHT22;18066;52.106;5.534;2023-09-08T00:43:52;18.00;99.90
18297;DHT22;18066;52.106;5.534;2023-09-08T00:46:19;17.90;99.90
18297;DHT22;18066;52.106;5.534;2023-09-08T00:48:46;17.90;99.90
18297;DHT22;18066;52.106;5.534;2023-09-08T00:51:13;18.00;99.90
18297;DHT22;18066;52.106;5.534;2023-09-08T00:53:40;18.00;99.90
18297;DHT22;18066;52.106;5.534;2023-09-08T00:56:09;17.90;99.90
18297;DHT22;18066;52.106;5.534;2023-09-08T00:58:37;18.00;99.90
18297;DHT22;18066;52.106;5.534;2023-09-08T01:01:04;17.90;99.90
18297;DHT22;18066;52.106;5.534;2023-09-08T01:03:32;17.90;99.90
18297;DHT22;18066;52.106;5.534;2023-09-08T01:05:59;18.00;99.90
18297;DHT22;18066;52.106;5.534;2023-09-08T01:08:26;17.90;99.90
18297;DHT22;18066;52.106;5.534;2023-09-08T01:10:53;17.90;99.90
18297;DHT22;18066;52.106;5.534;2023-09-08T01:13:20;17.80;99.90
18297;DHT22;18066;52.106;5.534;2023-09-08T01:15:49;17.80;99.90
18297;DHT22;18066;52.106;5.534;2023-09-08T01:18:16;17.80;99.90
18297;DHT22;18066;52.106;5.534;2023-09-08T01:21:12;17.60;99.90
18297;DHT22;18066;52.106;5.534;2023-09-08T01:23:53;17.70;99.90
18297;DHT22;18066;52.106;5.534;2023-09-08T01:26:27;17.70;99.90
18297;DHT22;18066;52.106;5.534;2023-09-08T01:28:57;17.70;99.90
18297;DHT22;18066;52.106;5.534;2023-09-08T01:31:24;17.70;99.90
18297;DHT22;18066;52.106;5.534;2023-09-08T01:33:51;17.60;99.90
18297;DHT22;18066;52.106;5.534;2023-09-08T01:36:18;17.60;99.90
18297;DHT22;18066;52.106;5.534;2023-09-08T01:38:45;17.60;99.90
18297;DHT22;18066;52.106;5.534;2023-09-08T01:41:12;17.60;99.90
18297;DHT22;18066;52.106;5.534;2023-09-08T01:43:40;17.40;99.90
18297;DHT22;18066;52.106;5.534;2023-09-08T01:46:07;17.50;99.90
18297;DHT22;18066;52.106;5.534;2023-09-08T01:48:34;17.50;99.90
18297;DHT22;18066;52.106;5.534;2023-09-08T01:51:00;17.60;99.90
18297;DHT22;18066;52.106;5.534;2023-09-08T01:53:27;17.50;99.90
18297;DHT22;18066;52.106;5.534;2023-09-08T01:55:54;17.50;99.90
18297;DHT22;18066;52.106;5.534;2023-09-08T01:58:21;17.50;99.90
18297;DHT22;18066;52.106;5.534;2023-09-08T02:00:50;17.50;99.90
18297;DHT22;18066;52.106;5.534;2023-09-08T02:03:17;17.50;99.90
18297;DHT22;18066;52.106;5.534;2023-09-08T02:05:45;17.50;99.90
18297;DHT22;18066;52.106;5.534;2023-09-08T02:08:11;17.40;99.90
18297;DHT22;18066;52.106;5.534;2023-09-08T02:10:40;17.50;99.90
18297;DHT22;18066;52.106;5.534;2023-09-08T02:13:07;17.50;99.90
18297;DHT22;18066;52.106;5.534;2023-09-08T02:15:35;17.50;99.90
18297;DHT22;18066;52.106;5.534;2023-09-08T02:18:04;17.40;99.90
18297;DHT22;18066;52.106;5.534;2023-09-08T02:20:30;17.40;99.90
18297;DHT22;18066;52.106;5.534;2023-09-08T02:22:58;17.40;99.90
18297;DHT22;18066;52.106;5.534;2023-09-08T02:25:24;17.40;99.90
18297;DHT22;18066;52.106;5.534;2023-09-08T02:27:51;17.40;99.90
18297;DHT22;18066;52.106;5.534;2023-09-08T02:30:18;17.40;99.90
18297;DHT22;18066;52.106;5.534;2023-09-08T02:32:45;17.40;99.90
18297;DHT22;18066;52.106;5.534;2023-09-08T02:35:13;17.40;99.90
18297;DHT22;18066;52.106;5.534;2023-09-08T02:37:40;17.30;99.90
18297;DHT22;18066;52.106;5.534;2023-09-08T02:40:07;17.30;99.90
18297;DHT22;18066;52.106;5.534;2023-09-08T02:42:35;17.20;99.90
18297;DHT22;18066;52.106;5.534;2023-09-08T02:45:02;17.30;99.90
18297;DHT22;18066;52.106;5.534;2023-09-08T02:47:28;17.30;99.90
18297;DHT22;18066;52.106;5.534;2023-09-08T02:49:55;17.30;99.90
18297;DHT22;18066;52.106;5.534;2023-09-08T02:52:23;17.20;99.90
18297;DHT22;18066;52.106;5.534;2023-09-08T02:54:50;17.20;99.90
18297;DHT22;18066;52.106;5.534;2023-09-08T02:57:17;17.20;99.90
18297;DHT22;18066;52.106;5.534;2023-09-08T02:59:49;17.20;99.90
18297;DHT22;18066;52.106;5.534;2023-09-08T03:02:16;17.20;99.90
18297;DHT22;18066;52.106;5.534;2023-09-08T03:04:43;17.20;99.90
18297;DHT22;18066;52.106;5.534;2023-09-08T03:07:10;17.10;99.90
18297;DHT22;18066;52.106;5.534;2023-09-08T03:09:38;17.10;99.90
18297;DHT22;18066;52.106;5.534;2023-09-08T03:12:05;17.00;99.90
18297;DHT22;18066;52.106;5.534;2023-09-08T03:14:32;17.00;99.90
18297;DHT22;18066;52.106;5.534;2023-09-08T03:16:59;17.00;99.90
18297;DHT22;18066;52.106;5.534;2023-09-08T03:19:26;16.90;99.90
18297;DHT22;18066;52.106;5.534;2023-09-08T03:21:52;17.00;99.90
18297;DHT22;18066;52.106;5.534;2023-09-08T03:24:19;16.90;99.90
18297;DHT22;18066;52.106;5.534;2023-09-08T03:26:47;16.90;99.90
18297;DHT22;18066;52.106;5.534;2023-09-08T03:29:14;17.00;99.90
18297;DHT22;18066;52.106;5.534;2023-09-08T03:31:41;16.90;99.90
18297;DHT22;18066;52.106;5.534;2023-09-08T03:34:08;16.90;99.90
18297;DHT22;18066;52.106;5.534;2023-09-08T03:36:35;16.90;99.90
18297;DHT22;18066;52.106;5.534;2023-09-08T03:39:02;16.90;99.90
18297;DHT22;18066;52.106;5.534;2023-09-08T03:41:29;16.90;99.90
18297;DHT22;18066;52.106;5.534;2023-09-08T03:43:57;16.80;99.90
18297;DHT22;18066;52.106;5.534;2023-09-08T03:46:24;16.80;99.90
18297;DHT22;18066;52.106;5.534;2023-09-08T03:48:51;16.80;99.90
18297;DHT22;18066;52.106;5.534;2023-09-08T03:51:19;16.80;99.90
18297;DHT22;18066;52.106;5.534;2023-09-08T03:53:46;16.80;99.90
18297;DHT22;18066;52.106;5.534;2023-09-08T03:56:13;16.70;99.90
18297;DHT22;18066;52.106;5.534;2023-09-08T03:58:40;16.70;99.90
18297;DHT22;18066;52.106;5.534;2023-09-08T04:01:08;16.60;99.90
18297;DHT22;18066;52.106;5.534;2023-09-08T04:03:35;16.60;99.90
18297;DHT22;18066;52.106;5.534;2023-09-08T04:06:02;16.60;99.90
18297;DHT22;18066;52.106;5.534;2023-09-08T04:08:29;16.60;99.90
18297;DHT22;18066;52.106;5.534;2023-09-08T04:10:55;16.60;99.90
18297;DHT22;18066;52.106;5.534;2023-09-08T04:13:22;16.60;99.90
18297;DHT22;18066;52.106;5.534;2023-09-08T04:15:49;16.50;99.90
18297;DHT22;18066;52.106;5.534;2023-09-08T04:18:17;16.50;99.90
18297;DHT22;18066;52.106;5.534;2023-09-08T04:20:44;16.50;99.90
18297;DHT22;18066;52.106;5.534;2023-09-08T04:23:11;16.50;99.90
18297;DHT22;18066;52.106;5.534;2023-09-08T04:25:37;16.60;99.90
18297;DHT22;18066;52.106;5.534;2023-09-08T04:28:05;16.60;99.90
18297;DHT22;18066;52.106;5.534;2023-09-08T04:30:31;16.60;99.90
18297;DHT22;18066;52.106;5.534;2023-09-08T04:32:58;16.50;99.90
18297;DHT22;18066;52.106;5.534;2023-09-08T04:35:26;16.40;99.90
18297;DHT22;18066;52.106;5.534;2023-09-08T04:37:53;16.40;99.90
18297;DHT22;18066;52.106;5.534;2023-09-08T04:40:20;16.40;99.90
18297;DHT22;18066;52.106;5.534;2023-09-08T04:42:47;16.40;99.90
18297;DHT22;18066;52.106;5.534;2023-09-08T04:45:13;16.40;99.90
18297;DHT22;18066;52.106;5.534;2023-09-08T04:47:40;16.50;99.90
18297;DHT22;18066;52.106;5.534;2023-09-08T04:50:08;16.40;99.90
18297;DHT22;18066;52.106;5.534;2023-09-08T04:52:36;16.40;99.90
18297;DHT22;18066;52.106;5.534;2023-09-08T04:55:04;16.40;99.90
18297;DHT22;18066;52.106;5.534;2023-09-08T04:57:31;16.40;99.90
18297;DHT22;18066;52.106;5.534;2023-09-08T04:59:57;16.30;99.90
18297;DHT22;18066;52.106;5.534;2023-09-08T05:02:24;16.30;99.90
18297;DHT22;18066;52.106;5.534;2023-09-08T05:04:51;16.40;99.90
18297;DHT22;18066;52.106;5.534;2023-09-08T05:07:18;16.40;99.90
18297;DHT22;18066;52.106;5.534;2023-09-08T05:09:46;16.40;99.90
18297;DHT22;18066;52.106;5.534;2023-09-08T05:12:13;16.40;99.90
18297;DHT22;18066;52.106;5.534;2023-09-08T05:14:40;16.30;99.90
18297;DHT22;18066;52.106;5.534;2023-09-08T05:17:07;16.30;99.90
18297;DHT22;18066;52.106;5.534;2023-09-08T05:19:34;16.40;99.90
18297;DHT22;18066;52.106;5.534;2023-09-08T05:22:01;16.40;99.90
18297;DHT22;18066;52.106;5.534;2023-09-08T05:24:28;16.40;99.90
18297;DHT22;18066;52.106;5.534;2023-09-08T05:26:56;16.40;99.90
18297;DHT22;18066;52.106;5.534;2023-09-08T05:29:23;16.40;99.90
18297;DHT22;18066;52.106;5.534;2023-09-08T05:31:49;16.40;99.90
18297;DHT22;18066;52.106;5.534;2023-09-08T05:34:17;16.40;99.90
18297;DHT22;18066;52.106;5.534;2023-09-08T05:36:44;16.50;99.90
18297;DHT22;18066;52.106;5.534;2023-09-08T05:39:10;16.50;99.90
18297;DHT22;18066;52.106;5.534;2023-09-08T05:41:39;16.60;99.90
18297;DHT22;18066;52.106;5.534;2023-09-08T05:44:07;16.60;99.90
18297;DHT22;18066;52.106;5.534;2023-09-08T05:46:34;16.70;99.90
18297;DHT22;18066;52.106;5.534;2023-09-08T05:49:00;16.70;99.90
18297;DHT22;18066;52.106;5.534;2023-09-08T05:51:27;16.70;99.90
18297;DHT22;18066;52.106;5.534;2023-09-08T05:53:54;16.80;99.90
18297;DHT22;18066;52.106;5.534;2023-09-08T05:56:21;16.70;99.90
18297;DHT22;18066;52.106;5.534;2023-09-08T06:23:48;17.60;99.90
18297;DHT22;18066;52.106;5.534;2023-09-08T06:26:15;17.60;99.90
18297;DHT22;18066;52.106;5.534;2023-09-08T06:28:42;17.70;99.90
18297;DHT22;18066;52.106;5.534;2023-09-08T06:31:11;17.80;99.90
18297;DHT22;18066;52.106;5.534;2023-09-08T06:33:40;17.90;99.90
18297;DHT22;18066;52.106;5.534;2023-09-08T06:36:07;17.90;99.90
18297;DHT22;18066;52.106;5.534;2023-09-08T06:38:33;18.10;99.90
18297;DHT22;18066;52.106;5.534;2023-09-08T06:41:08;18.20;99.90
18297;DHT22;18066;52.106;5.534;2023-09-08T06:43:36;18.30;99.90
18297;DHT22;18066;52.106;5.534;2023-09-08T06:46:02;18.30;99.90
18297;DHT22;18066;52.106;5.534;2023-09-08T06:48:29;18.50;99.90
18297;DHT22;18066;52.106;5.534;2023-09-08T06:50:56;18.50;99.90
18297;DHT22;18066;52.106;5.534;2023-09-08T06:53:24;18.70;99.90
18297;DHT22;18066;52.106;5.534;2023-09-08T06:55:51;18.70;99.90
18297;DHT22;18066;52.106;5.534;2023-09-08T06:58:19;18.80;99.90
18297;DHT22;18066;52.106;5.534;2023-09-08T07:00:46;19.00;99.90
18297;DHT22;18066;52.106;5.534;2023-09-08T07:03:15;19.10;99.90
18297;DHT22;18066;52.106;5.534;2023-09-08T07:05:42;19.20;99.90
18297;DHT22;18066;52.106;5.534;2023-09-08T07:08:08;19.30;99.90
18297;DHT22;18066;52.106;5.534;2023-09-08T07:10:35;19.50;99.90
18297;DHT22;18066;52.106;5.534;2023-09-08T07:13:02;19.60;99.90
18297;DHT22;18066;52.106;5.534;2023-09-08T07:15:31;19.70;99.90
18297;DHT22;18066;52.106;5.534;2023-09-08T07:17:57;19.90;99.90
18297;DHT22;18066;52.106;5.534;2023-09-08T07:20:24;20.00;99.90
18297;DHT22;18066;52.106;5.534;2023-09-08T07:22:50;20.20;99.90
18297;DHT22;18066;52.106;5.534;2023-09-08T07:25:17;20.30;99.90
18297;DHT22;18066;52.106;5.534;2023-09-08T07:27:45;20.50;99.90
18297;DHT22;18066;52.106;5.534;2023-09-08T07:30:12;20.60;99.90
18297;DHT22;18066;52.106;5.534;2023-09-08T07:32:40;20.70;99.90
18297;DHT22;18066;52.106;5.534;2023-09-08T07:35:07;20.80;99.90
18297;DHT22;18066;52.106;5.534;2023-09-08T07:37:39;20.90;99.90
18297;DHT22;18066;52.106;5.534;2023-09-08T07:40:08;21.00;99.90
18297;DHT22;18066;52.106;5.534;2023-09-08T07:42:35;21.20;99.90
18297;DHT22;18066;52.106;5.534;2023-09-08T07:45:02;21.40;99.90
18297;DHT22;18066;52.106;5.534;2023-09-08T07:47:29;21.60;99.90
18297;DHT22;18066;52.106;5.534;2023-09-08T07:50:20;21.70;99.90
18297;DHT22;18066;52.106;5.534;2023-09-08T07:52:47;21.90;99.90
18297;DHT22;18066;52.106;5.534;2023-09-08T07:55:14;22.00;99.90
18297;DHT22;18066;52.106;5.534;2023-09-08T07:57:41;22.10;99.90
18297;DHT22;18066;52.106;5.534;2023-09-08T08:00:09;22.20;99.90
18297;DHT22;18066;52.106;5.534;2023-09-08T08:02:37;22.40;99.90
18297;DHT22;18066;52.106;5.534;2023-09-08T08:05:05;22.60;99.90
18297;DHT22;18066;52.106;5.534;2023-09-08T08:07:33;22.60;99.90
18297;DHT22;18066;52.106;5.534;2023-09-08T08:10:00;22.80;99.90
18297;DHT22;18066;52.106;5.534;2023-09-08T08:12:27;23.00;99.90
18297;DHT22;18066;52.106;5.534;2023-09-08T08:14:54;23.10;99.90
18297;DHT22;18066;52.106;5.534;2023-09-08T08:17:21;23.20;99.90
18297;DHT22;18066;52.106;5.534;2023-09-08T08:19:47;23.30;99.90
18297;DHT22;18066;52.106;5.534;2023-09-08T08:22:15;23.50;99.90
18297;DHT22;18066;52.106;5.534;2023-09-08T08:24:44;23.50;99.90
18297;DHT22;18066;52.106;5.534;2023-09-08T08:27:11;23.50;99.90
18297;DHT22;18066;52.106;5.534;2023-09-08T08:29:39;23.40;99.90
18297;DHT22;18066;52.106;5.534;2023-09-08T08:32:06;23.40;99.90
18297;DHT22;18066;52.106;5.534;2023-09-08T08:34:32;23.50;99.90
18297;DHT22;18066;52.106;5.534;2023-09-08T08:36:59;23.70;99.90
18297;DHT22;18066;52.106;5.534;2023-09-08T08:39:27;23.90;99.90
18297;DHT22;18066;52.106;5.534;2023-09-08T08:41:55;24.10;99.90
18297;DHT22;18066;52.106;5.534;2023-09-08T08:44:23;24.20;99.90
18297;DHT22;18066;52.106;5.534;2023-09-08T08:46:51;24.40;99.90
18297;DHT22;18066;52.106;5.534;2023-09-08T08:49:19;24.40;99.90
18297;DHT22;18066;52.106;5.534;2023-09-08T08:51:48;24.50;99.90
18297;DHT22;18066;52.106;5.534;2023-09-08T08:54:16;24.50;99.90
18297;DHT22;18066;52.106;5.534;2023-09-08T08:56:43;24.60;99.90
18297;DHT22;18066;52.106;5.534;2023-09-08T08:59:12;24.70;99.90
18297;DHT22;18066;52.106;5.534;2023-09-08T09:01:42;24.80;99.90
18297;DHT22;18066;52.106;5.534;2023-09-08T09:04:10;24.90;99.90
18297;DHT22;18066;52.106;5.534;2023-09-08T09:06:36;25.00;99.90
18297;DHT22;18066;52.106;5.534;2023-09-08T09:09:03;25.20;99.90
18297;DHT22;18066;52.106;5.534;2023-09-08T09:11:30;25.10;99.90
18297;DHT22;18066;52.106;5.534;2023-09-08T09:13:57;25.20;99.90
18297;DHT22;18066;52.106;5.534;2023-09-08T09:16:24;25.10;99.90
18297;DHT22;18066;52.106;5.534;2023-09-08T09:18:55;25.10;99.90
18297;DHT22;18066;52.106;5.534;2023-09-08T09:21:22;25.20;99.90
18297;DHT22;18066;52.106;5.534;2023-09-08T09:23:50;25.20;99.90
18297;DHT22;18066;52.106;5.534;2023-09-08T09:26:34;25.30;99.90
18297;DHT22;18066;52.106;5.534;2023-09-08T09:29:02;25.40;99.90
18297;DHT22;18066;52.106;5.534;2023-09-08T09:31:50;25.50;99.90
18297;DHT22;18066;52.106;5.534;2023-09-08T09:34:18;25.60;99.90
18297;DHT22;18066;52.106;5.534;2023-09-08T09:36:47;25.70;99.90
18297;DHT22;18066;52.106;5.534;2023-09-08T09:39:16;25.80;99.90
18297;DHT22;18066;52.106;5.534;2023-09-08T09:41:44;25.90;99.90
18297;DHT22;18066;52.106;5.534;2023-09-08T09:44:11;26.00;99.90
18297;DHT22;18066;52.106;5.534;2023-09-08T09:46:38;26.00;99.90
18297;DHT22;18066;52.106;5.534;2023-09-08T09:49:06;26.10;99.90
18297;DHT22;18066;52.106;5.534;2023-09-08T09:51:40;26.20;99.90
18297;DHT22;18066;52.106;5.534;2023-09-08T09:54:07;26.40;99.90
18297;DHT22;18066;52.106;5.534;2023-09-08T09:56:36;26.40;99.90
18297;DHT22;18066;52.106;5.534;2023-09-08T09:59:04;26.40;99.90
18297;DHT22;18066;52.106;5.534;2023-09-08T10:01:31;26.40;99.90
18297;DHT22;18066;52.106;5.534;2023-09-08T10:03:59;26.40;99.90
18297;DHT22;18066;52.106;5.534;2023-09-08T10:06:29;26.50;99.90
18297;DHT22;18066;52.106;5.534;2023-09-08T10:08:59;26.60;99.90
18297;DHT22;18066;52.106;5.534;2023-09-08T10:11:29;26.60;99.90
18297;DHT22;18066;52.106;5.534;2023-09-08T10:13:58;26.40;99.90
18297;DHT22;18066;52.106;5.534;2023-09-08T10:16:27;26.50;99.90
18297;DHT22;18066;52.106;5.534;2023-09-08T10:18:58;26.60;99.90
18297;DHT22;18066;52.106;5.534;2023-09-08T10:21:29;26.70;99.90
18297;DHT22;18066;52.106;5.534;2023-09-08T10:24:00;26.80;99.90
18297;DHT22;18066;52.106;5.534;2023-09-08T10:26:31;26.90;99.90
18297;DHT22;18066;52.106;5.534;2023-09-08T10:28:58;27.00;99.90
18297;DHT22;18066;52.106;5.534;2023-09-08T10:31:26;27.00;99.90
18297;DHT22;18066;52.106;5.534;2023-09-08T10:33:55;27.10;99.90
18297;DHT22;18066;52.106;5.534;2023-09-08T10:36:23;27.10;99.90
18297;DHT22;18066;52.106;5.534;2023-09-08T10:38:51;27.20;99.90
18297;DHT22;18066;52.106;5.534;2023-09-08T10:41:27;27.20;99.90
18297;DHT22;18066;52.106;5.534;2023-09-08T10:44:01;27.20;99.90
18297;DHT22;18066;52.106;5.534;2023-09-08T10:46:31;27.30;99.90
18297;DHT22;18066;52.106;5.534;2023-09-08T10:49:03;27.20;99.90
18297;DHT22;18066;52.106;5.534;2023-09-08T10:51:30;27.20;99.90
18297;DHT22;18066;52.106;5.534;2023-09-08T10:53:58;27.20;99.90
18297;DHT22;18066;52.106;5.534;2023-09-08T10:56:46;27.20;99.90
18297;DHT22;18066;52.106;5.534;2023-09-08T10:59:14;27.10;99.90
18297;DHT22;18066;52.106;5.534;2023-09-08T11:01:42;27.10;99.90
18297;DHT22;18066;52.106;5.534;2023-09-08T11:04:09;27.10;99.90
18297;DHT22;18066;52.106;5.534;2023-09-08T11:06:38;27.10;99.90
18297;DHT22;18066;52.106;5.534;2023-09-08T11:09:08;27.20;99.90
18297;DHT22;18066;52.106;5.534;2023-09-08T11:11:35;27.20;99.90
18297;DHT22;18066;52.106;5.534;2023-09-08T11:14:03;27.20;99.90
18297;DHT22;18066;52.106;5.534;2023-09-08T11:16:30;27.20;99.90
18297;DHT22;18066;52.106;5.534;2023-09-08T11:18:58;27.20;99.90
18297;DHT22;18066;52.106;5.534;2023-09-08T11:21:26;27.10;99.90
18297;DHT22;18066;52.106;5.534;2023-09-08T11:24:00;27.10;99.90
18297;DHT22;18066;52.106;5.534;2023-09-08T11:26:28;26.90;99.90
18297;DHT22;18066;52.106;5.534;2023-09-08T11:28:55;27.00;99.90
18297;DHT22;18066;52.106;5.534;2023-09-08T11:31:22;27.00;99.90
18297;DHT22;18066;52.106;5.534;2023-09-08T11:33:49;27.10;99.90
18297;DHT22;18066;52.106;5.534;2023-09-08T11:36:16;27.00;99.90
18297;DHT22;18066;52.106;5.534;2023-09-08T11:38:44;27.10;99.90
18297;DHT22;18066;52.106;5.534;2023-09-08T11:41:11;27.10;99.90
18297;DHT22;18066;52.106;5.534;2023-09-08T11:43:40;27.10;99.90
18297;DHT22;18066;52.106;5.534;2023-09-08T11:46:07;27.10;99.90
18297;DHT22;18066;52.106;5.534;2023-09-08T11:48:36;27.10;99.90
18297;DHT22;18066;52.106;5.534;2023-09-08T11:51:03;27.10;99.90
18297;DHT22;18066;52.106;5.534;2023-09-08T11:53:32;27.10;99.90
18297;DHT22;18066;52.106;5.534;2023-09-08T11:55:59;27.20;99.90
18297;DHT22;18066;52.106;5.534;2023-09-08T11:58:26;27.30;99.90
18297;DHT22;18066;52.106;5.534;2023-09-08T12:00:54;27.30;99.90
18297;DHT22;18066;52.106;5.534;2023-09-08T12:03:21;27.20;99.90
18297;DHT22;18066;52.106;5.534;2023-09-08T12:05:52;27.30;99.90
18297;DHT22;18066;52.106;5.534;2023-09-08T12:08:19;27.40;99.90
18297;DHT22;18066;52.106;5.534;2023-09-08T12:10:46;27.40;99.90
18297;DHT22;18066;52.106;5.534;2023-09-08T12:13:19;27.50;99.90
18297;DHT22;18066;52.106;5.534;2023-09-08T12:15:46;27.40;99.90
18297;DHT22;18066;52.106;5.534;2023-09-08T12:18:14;27.50;99.90
18297;DHT22;18066;52.106;5.534;2023-09-08T12:20:42;27.60;99.90
18297;DHT22;18066;52.106;5.534;2023-09-08T12:23:16;27.60;99.90
18297;DHT22;18066;52.106;5.534;2023-09-08T12:25:47;27.70;99.90
18297;DHT22;18066;52.106;5.534;2023-09-08T12:28:14;27.70;99.90
18297;DHT22;18066;52.106;5.534;2023-09-08T12:30:42;27.70;99.90
18297;DHT22;18066;52.106;5.534;2023-09-08T12:33:09;27.70;99.90
18297;DHT22;18066;52.106;5.534;2023-09-08T12:35:38;27.80;99.90
18297;DHT22;18066;52.106;5.534;2023-09-08T12:38:05;27.70;99.90
18297;DHT22;18066;52.106;5.534;2023-09-08T12:40:34;27.80;99.90
18297;DHT22;18066;52.106;5.534;2023-09-08T12:43:01;27.80;99.90
18297;DHT22;18066;52.106;5.534;2023-09-08T12:45:28;27.80;99.90
18297;DHT22;18066;52.106;5.534;2023-09-08T12:47:58;27.80;99.90
18297;DHT22;18066;52.106;5.534;2023-09-08T12:50:27;27.80;99.90
18297;DHT22;18066;52.106;5.534;2023-09-08T12:52:56;27.70;99.90
18297;DHT22;18066;52.106;5.534;2023-09-08T12:55:23;27.70;99.90
18297;DHT22;18066;52.106;5.534;2023-09-08T12:57:50;27.80;99.90
18297;DHT22;18066;52.106;5.534;2023-09-08T13:00:20;27.90;99.90
18297;DHT22;18066;52.106;5.534;2023-09-08T13:02:48;27.90;99.90
18297;DHT22;18066;52.106;5.534;2023-09-08T13:05:15;27.90;99.90
18297;DHT22;18066;52.106;5.534;2023-09-08T13:07:42;28.00;99.90
18297;DHT22;18066;52.106;5.534;2023-09-08T13:10:10;28.00;99.90
18297;DHT22;18066;52.106;5.534;2023-09-08T13:12:37;28.10;99.90
18297;DHT22;18066;52.106;5.534;2023-09-08T13:15:05;28.10;99.90
18297;DHT22;18066;52.106;5.534;2023-09-08T13:17:32;28.10;99.90
18297;DHT22;18066;52.106;5.534;2023-09-08T13:19:58;28.20;99.90
18297;DHT22;18066;52.106;5.534;2023-09-08T13:22:25;28.10;99.90
18297;DHT22;18066;52.106;5.534;2023-09-08T13:24:53;28.10;99.90
18297;DHT22;18066;52.106;5.534;2023-09-08T13:27:21;28.10;99.90
18297;DHT22;18066;52.106;5.534;2023-09-08T13:29:48;28.10;99.90
18297;DHT22;18066;52.106;5.534;2023-09-08T13:32:15;28.20;99.90
18297;DHT22;18066;52.106;5.534;2023-09-08T13:34:42;28.10;99.90
18297;DHT22;18066;52.106;5.534;2023-09-08T13:37:10;28.20;99.90
18297;DHT22;18066;52.106;5.534;2023-09-08T13:39:36;28.30;99.90
18297;DHT22;18066;52.106;5.534;2023-09-08T13:42:04;28.30;99.90
18297;DHT22;18066;52.106;5.534;2023-09-08T13:44:32;28.40;99.90
18297;DHT22;18066;52.106;5.534;2023-09-08T13:46:59;28.30;99.90
18297;DHT22;18066;52.106;5.534;2023-09-08T13:49:26;28.30;99.90
18297;DHT22;18066;52.106;5.534;2023-09-08T13:51:53;28.30;99.90
18297;DHT22;18066;52.106;5.534;2023-09-08T13:54:20;28.40;99.90
18297;DHT22;18066;52.106;5.534;2023-09-08T13:56:57;28.50;99.90
18297;DHT22;18066;52.106;5.534;2023-09-08T13:59:24;28.60;99.90
18297;DHT22;18066;52.106;5.534;2023-09-08T14:01:52;28.50;99.90
18297;DHT22;18066;52.106;5.534;2023-09-08T14:04:20;28.50;99.90
18297;DHT22;18066;52.106;5.534;2023-09-08T14:06:47;28.50;99.90
18297;DHT22;18066;52.106;5.534;2023-09-08T14:09:14;28.60;99.90
18297;DHT22;18066;52.106;5.534;2023-09-08T14:11:41;28.50;99.90
18297;DHT22;18066;52.106;5.534;2023-09-08T14:14:07;28.60;99.90
18297;DHT22;18066;52.106;5.534;2023-09-08T14:16:35;28.80;99.90
18297;DHT22;18066;52.106;5.534;2023-09-08T14:19:03;28.80;99.90
18297;DHT22;18066;52.106;5.534;2023-09-08T14:21:30;28.80;99.90
18297;DHT22;18066;52.106;5.534;2023-09-08T14:23:58;28.70;99.90
18297;DHT22;18066;52.106;5.534;2023-09-08T14:26:24;28.80;99.90
18297;DHT22;18066;52.106;5.534;2023-09-08T14:28:51;29.00;99.90
18297;DHT22;18066;52.106;5.534;2023-09-08T14:31:18;29.10;99.90
18297;DHT22;18066;52.106;5.534;2023-09-08T14:33:45;29.20;99.90
18297;DHT22;18066;52.106;5.534;2023-09-08T14:36:18;29.30;99.90
18297;DHT22;18066;52.106;5.534;2023-09-08T14:38:45;29.50;99.90
18297;DHT22;18066;52.106;5.534;2023-09-08T14:41:12;29.50;99.90
18297;DHT22;18066;52.106;5.534;2023-09-08T14:43:40;29.70;99.90
18297;DHT22;18066;52.106;5.534;2023-09-08T14:46:06;29.80;99.90
18297;DHT22;18066;52.106;5.534;2023-09-08T14:48:33;29.90;99.90
18297;DHT22;18066;52.106;5.534;2023-09-08T14:51:01;30.10;99.90
18297;DHT22;18066;52.106;5.534;2023-09-08T14:53:30;30.60;99.90
18297;DHT22;18066;52.106;5.534;2023-09-08T14:55:57;30.70;99.90
18297;DHT22;18066;52.106;5.534;2023-09-08T14:58:24;30.90;99.90
18297;DHT22;18066;52.106;5.534;2023-09-08T15:00:57;32.30;99.90
18297;DHT22;18066;52.106;5.534;2023-09-08T15:03:25;34.40;99.90
18297;DHT22;18066;52.106;5.534;2023-09-08T15:05:52;36.00;99.90
18297;DHT22;18066;52.106;5.534;2023-09-08T15:08:18;37.30;99.90
18297;DHT22;18066;52.106;5.534;2023-09-08T15:10:47;38.30;99.90
18297;DHT22;18066;52.106;5.534;2023-09-08T15:13:14;39.00;99.90
18297;DHT22;18066;52.106;5.534;2023-09-08T15:15:41;39.30;99.90
18297;DHT22;18066;52.106;5.534;2023-09-08T15:18:08;39.40;99.90
18297;DHT22;18066;52.106;5.534;2023-09-08T15:20:35;39.50;99.90
18297;DHT22;18066;52.106;5.534;2023-09-08T15:23:02;40.10;99.90
18297;DHT22;18066;52.106;5.534;2023-09-08T15:25:29;41.00;99.90
18297;DHT22;18066;52.106;5.534;2023-09-08T15:27:57;41.80;99.90
18297;DHT22;18066;52.106;5.534;2023-09-08T15:30:24;42.50;99.90
18297;DHT22;18066;52.106;5.534;2023-09-08T15:32:51;43.20;99.90
18297;DHT22;18066;52.106;5.534;2023-09-08T15:35:18;43.60;99.90
18297;DHT22;18066;52.106;5.534;2023-09-08T15:37:45;43.60;99.90
18297;DHT22;18066;52.106;5.534;2023-09-08T15:40:12;43.70;99.90
18297;DHT22;18066;52.106;5.534;2023-09-08T15:42:40;43.60;99.80
18297;DHT22;18066;52.106;5.534;2023-09-08T15:45:09;43.50;98.20
18297;DHT22;18066;52.106;5.534;2023-09-08T15:47:36;44.00;98.10
18297;DHT22;18066;52.106;5.534;2023-09-08T15:50:04;44.40;97.40
18297;DHT22;18066;52.106;5.534;2023-09-08T15:52:34;44.70;97.00
18297;DHT22;18066;52.106;5.534;2023-09-08T15:55:01;45.10;96.60
18297;DHT22;18066;52.106;5.534;2023-09-08T15:57:28;45.30;96.10
18297;DHT22;18066;52.106;5.534;2023-09-08T15:59:55;45.30;95.80